Time;durP1;ratioP1;P1;durP2;ratioP2;P2;SDS_P1;SDS_P2;PMS_P1;PMS_P2;Temp;Humidity;BMP_temperature;BMP_pressure;BME280_temperature;BME280_humidity;BME280_pressure;Samples;Min_cycle;Max_cycle;Signal;HPM_P1;HPM_P2
2022/03/19 00:01:59;;;;;;;116.00;66.60;;;;;;;-2.89;61.49;101377.33;105276;1268;62062;-80
2022/03/19 00:04:25;;;;;;;117.60;66.50;;;;;;;-2.91;61.56;101371.53;105283;1270;62150;-79
2022/03/19 00:06:52;;;;;;;123.10;67.40;;;;;;;-2.94;61.49;101368.15;105305;1268;62148;-80
2022/03/19 00:09:18;;;;;;;120.00;67.10;;;;;;;-2.96;61.78;101363.03;105300;1270;62149;-77
2022/03/19 00:11:45;;;;;;;122.10;66.30;;;;;;;-3.01;61.94;101359.61;105260;1270;62120;-79
2022/03/19 00:14:12;;;;;;;116.10;66.30;;;;;;;-3.05;61.81;101359.50;105289;1270;62573;-79
2022/03/19 00:16:39;;;;;;;122.70;70.10;;;;;;;-3.08;61.87;101359.44;105293;1269;62089;-80
2022/03/19 00:19:08;;;;;;;130.90;72.40;;;;;;;-3.09;62.11;101358.89;105301;1270;76926;-81
2022/03/19 00:21:37;;;;;;;123.10;68.80;;;;;;;-3.13;62.24;101362.96;105321;1270;67299;-81
2022/03/19 00:24:04;;;;;;;127.60;70.70;;;;;;;-3.19;62.48;101361.75;105332;1270;73021;-80
2022/03/19 00:26:33;;;;;;;128.10;71.90;;;;;;;-3.20;62.70;101360.67;105454;1270;62079;-79
2022/03/19 00:29:00;;;;;;;131.20;72.10;;;;;;;-3.17;62.55;101357.65;105316;1270;62169;-78
2022/03/19 00:31:26;;;;;;;121.50;68.30;;;;;;;-3.15;62.52;101349.69;105296;1270;63549;-79
2022/03/19 00:33:53;;;;;;;115.60;63.20;;;;;;;-3.12;62.85;101347.34;105285;1270;70278;-80
2022/03/19 00:36:19;;;;;;;118.10;66.50;;;;;;;-3.06;62.88;101348.16;105258;1270;62078;-79
2022/03/19 00:38:46;;;;;;;162.30;83.70;;;;;;;-3.03;62.89;101347.73;105282;1270;62114;-80
2022/03/19 00:41:13;;;;;;;191.20;99.10;;;;;;;-3.01;63.03;101351.08;105286;1270;62046;-80
2022/03/19 00:43:41;;;;;;;241.60;124.80;;;;;;;-3.05;63.10;101353.41;105009;1270;77390;-79
2022/03/19 00:46:07;;;;;;;165.10;89.10;;;;;;;-3.14;63.17;101348.34;105321;1270;69360;-79
2022/03/19 00:48:34;;;;;;;146.80;83.80;;;;;;;-3.21;63.41;101346.39;105279;1270;73446;-79
2022/03/19 00:51:00;;;;;;;151.70;79.20;;;;;;;-3.28;63.73;101347.25;105241;1270;62168;-78
2022/03/19 00:53:27;;;;;;;133.80;79.60;;;;;;;-3.37;63.81;101345.10;105062;1270;320261;-80
2022/03/19 00:55:54;;;;;;;142.80;78.80;;;;;;;-3.45;64.25;101341.22;105285;1270;76088;-78
2022/03/19 00:58:20;;;;;;;141.40;82.00;;;;;;;-3.53;64.66;101341.67;105305;1270;70557;-79
2022/03/19 01:00:47;;;;;;;156.40;82.50;;;;;;;-3.63;64.51;101343.34;105296;1270;62043;-78
2022/03/19 01:03:15;;;;;;;148.70;81.40;;;;;;;-3.71;64.36;101342.41;104532;1270;1002967;-81
2022/03/19 01:05:43;;;;;;;136.40;76.60;;;;;;;-3.78;64.45;101336.83;105297;1270;62095;-78
2022/03/19 01:08:11;;;;;;;148.80;83.60;;;;;;;-3.84;64.42;101336.30;105601;1270;74271;-78
2022/03/19 01:10:38;;;;;;;154.80;84.10;;;;;;;-3.88;64.73;101330.96;105426;1269;67554;-79
2022/03/19 01:13:06;;;;;;;131.20;76.80;;;;;;;-3.91;65.26;101330.52;105316;1270;73953;-77
2022/03/19 01:15:33;;;;;;;126.20;71.90;;;;;;;-3.95;65.26;101328.34;104563;1270;1003783;-79
2022/03/19 01:18:03;;;;;;;130.90;75.40;;;;;;;-3.96;65.18;101332.98;105305;1270;62031;-80
2022/03/19 01:20:30;;;;;;;136.70;75.20;;;;;;;-3.95;65.31;101330.41;105312;1270;75913;-80
2022/03/19 01:22:57;;;;;;;137.80;76.90;;;;;;;-3.97;65.39;101328.61;105030;1271;69424;-79
2022/03/19 01:25:23;;;;;;;132.20;74.40;;;;;;;-4.00;65.62;101334.97;105306;1270;73218;-79
2022/03/19 01:27:50;;;;;;;137.30;77.10;;;;;;;-4.01;65.74;101333.17;105322;1270;62172;-79
2022/03/19 01:30:21;;;;;;;134.20;78.30;;;;;;;-4.01;65.92;101334.93;105307;1270;62078;-78
2022/03/19 01:32:48;;;;;;;128.60;71.80;;;;;;;-3.98;66.20;101335.02;105382;1270;75341;-77
2022/03/19 01:35:16;;;;;;;116.10;71.50;;;;;;;-3.93;66.34;101336.37;105371;1270;67596;-78
2022/03/19 01:37:44;;;;;;;115.80;69.70;;;;;;;-3.89;66.34;101334.77;105313;1270;72687;-79
2022/03/19 01:40:13;;;;;;;118.00;69.30;;;;;;;-3.85;66.31;101334.02;105358;1270;62188;-79
2022/03/19 01:42:45;;;;;;;120.20;69.30;;;;;;;-3.80;66.45;101337.79;105343;1270;62013;-79
2022/03/19 01:45:17;;;;;;;122.50;70.70;;;;;;;-3.78;66.68;101333.33;105158;1271;77779;-79
2022/03/19 01:47:44;;;;;;;117.70;68.20;;;;;;;-3.75;66.82;101331.68;105301;1270;69125;-79
2022/03/19 01:50:11;;;;;;;120.30;70.60;;;;;;;-3.72;66.89;101336.30;105268;1270;73797;-79
2022/03/19 01:52:39;;;;;;;126.60;73.90;;;;;;;-3.72;66.83;101337.16;105339;1270;62080;-79
2022/03/19 01:55:07;;;;;;;130.20;71.80;;;;;;;-3.73;66.80;101334.19;105632;1269;62145;-79
2022/03/19 01:57:37;;;;;;;123.70;73.90;;;;;;;-3.75;66.57;101331.86;105291;1270;77131;-79
2022/03/19 02:00:04;;;;;;;;;;;;;;;-3.78;66.59;101329.88;105371;1270;69241;-79
2022/03/19 02:02:31;;;;;;;125.00;70.70;;;;;;;-3.86;66.65;101324.78;105245;1270;71374;-79
2022/03/19 02:05:03;;;;;;;131.70;74.70;;;;;;;-3.96;66.71;101329.52;105318;1270;62227;-79
2022/03/19 02:07:31;;;;;;;112.90;66.60;;;;;;;-4.03;67.01;101328.63;105323;1270;61995;-77
2022/03/19 02:09:59;;;;;;;116.60;67.20;;;;;;;-4.11;67.08;101328.88;105266;1270;76136;-80
2022/03/19 02:12:27;;;;;;;122.20;69.70;;;;;;;-4.20;67.18;101328.42;105249;1270;69377;-79
2022/03/19 02:14:53;;;;;;;116.30;66.70;;;;;;;-4.25;67.29;101329.70;105508;1270;74335;-80
2022/03/19 02:17:20;;;;;;;118.60;66.60;;;;;;;-4.28;67.30;101330.29;105286;1268;62120;-80
2022/03/19 02:19:51;;;;;;;113.00;62.40;;;;;;;-4.30;67.07;101332.64;105286;1270;62063;-78
2022/03/19 02:22:20;;;;;;;104.40;63.90;;;;;;;-4.30;66.83;101332.83;105030;1270;75365;-79
2022/03/19 02:27:33;;;;;;;100.70;57.80;;;;;;;-4.29;66.78;101324.34;105324;1270;74205;-78
2022/03/19 02:30:01;;;;;;;104.80;58.70;;;;;;;-4.29;67.12;101326.09;105326;1268;62094;-78
2022/03/19 02:32:27;;;;;;;105.50;61.90;;;;;;;-4.28;67.20;101330.98;105361;1270;62316;-78
2022/03/19 02:34:54;;;;;;;103.50;62.70;;;;;;;-4.25;67.24;101327.08;105366;1270;61983;-80
2022/03/19 02:37:22;;;;;;;101.70;62.60;;;;;;;-4.19;67.33;101330.05;105069;1270;70304;-77
2022/03/19 02:39:48;;;;;;;94.10;60.00;;;;;;;-4.15;67.22;101328.08;105301;1270;72277;-78
2022/03/19 02:42:17;;;;;;;101.20;61.20;;;;;;;-4.13;67.18;101327.80;105333;1270;62116;-78
2022/03/19 02:44:45;;;;;;;110.40;61.70;;;;;;;-4.11;67.33;101328.20;105389;1270;62153;-78
2022/03/19 02:47:12;;;;;;;109.00;64.10;;;;;;;-4.13;67.50;101328.66;105487;1269;77060;-79
2022/03/19 02:49:39;;;;;;;109.00;66.10;;;;;;;-4.18;67.49;101326.95;105192;1271;69163;-78
2022/03/19 02:52:06;;;;;;;107.90;61.60;;;;;;;-4.25;67.62;101325.36;105320;1270;62583;-79
2022/03/19 02:54:32;;;;;;;99.30;62.00;;;;;;;-4.31;67.64;101323.09;105164;1271;62086;-79
2022/03/19 02:56:59;;;;;;;111.50;64.60;;;;;;;-4.36;67.77;101318.75;105431;1270;62114;-78
2022/03/19 02:59:31;;;;;;;95.70;58.10;;;;;;;-4.42;68.01;101318.58;104734;1270;1003488;-79
2022/03/19 03:02:04;;;;;;;94.60;54.00;;;;;;;-4.45;67.72;101315.35;105186;1270;70500;-78
2022/03/19 03:04:32;;;;;;;108.80;59.40;;;;;;;-4.46;67.74;101319.00;105725;1269;71451;-79
2022/03/19 03:07:03;;;;;;;98.00;56.90;;;;;;;-4.46;67.70;101317.73;105771;1270;62155;-80
2022/03/19 03:09:31;;;;;;;98.80;58.20;;;;;;;-4.50;67.60;101319.89;105835;1270;62060;-78
2022/03/19 03:12:01;;;;;;;103.90;62.80;;;;;;;-4.56;67.76;101321.61;105736;1270;76259;-78
2022/03/19 03:14:29;;;;;;;101.00;61.00;;;;;;;-4.63;67.88;101320.17;104995;1270;1003734;-78
2022/03/19 03:17:00;;;;;;;101.00;58.50;;;;;;;-4.70;68.00;101321.85;107437;1270;74210;-78
2022/03/19 03:19:27;;;;;;;98.10;59.90;;;;;;;-4.76;68.15;101323.23;106836;1270;1003140;-78
2022/03/19 03:21:54;;;;;;;95.30;57.60;;;;;;;-4.81;68.29;101321.99;106615;1270;1003007;-78
2022/03/19 03:24:22;;;;;;;95.70;56.50;;;;;;;-4.86;68.04;101329.13;107330;1270;75890;-77
2022/03/19 03:26:49;;;;;;;100.70;61.10;;;;;;;-4.92;68.05;101324.26;106850;1270;69099;-80
2022/03/19 03:29:16;;;;;;;108.30;64.20;;;;;;;-4.97;68.35;101321.83;105346;1270;62133;-80
2022/03/19 03:31:42;;;;;;;113.20;67.80;;;;;;;-5.02;68.81;101317.35;105167;1270;62110;-78
2022/03/19 03:34:08;;;;;;;106.00;60.10;;;;;;;-5.06;68.91;101318.23;105315;1270;62043;-79
2022/03/19 03:36:35;;;;;;;99.90;60.30;;;;;;;-5.10;69.01;101320.20;105197;1269;62187;-80
2022/03/19 03:39:02;;;;;;;104.90;59.80;;;;;;;-5.10;69.31;101318.29;105358;1270;61945;-79
2022/03/19 03:41:28;;;;;;;98.90;61.70;;;;;;;-5.11;69.34;101324.48;105309;1270;74121;-80
2022/03/19 03:43:55;;;;;;;94.00;60.60;;;;;;;-5.11;69.73;101326.91;105331;1270;62093;-80
2022/03/19 03:46:21;;;;;;;90.90;58.30;;;;;;;-5.05;69.75;101323.98;105286;1270;62069;-79
2022/03/19 03:48:48;;;;;;;97.90;58.70;;;;;;;-4.97;69.88;101322.36;105121;1270;76970;-80
2022/03/19 03:51:15;;;;;;;98.40;57.30;;;;;;;-4.91;69.76;101319.77;105369;1270;62084;-80
2022/03/19 03:53:45;;;;;;;94.70;55.60;;;;;;;-4.89;69.76;101317.95;104532;1270;1003190;-80
2022/03/19 03:56:12;;;;;;;91.90;59.70;;;;;;;-4.88;69.73;101318.84;105752;1268;62171;-79
2022/03/19 03:58:40;;;;;;;99.20;59.80;;;;;;;-4.90;69.75;101322.43;105288;1270;62088;-80
2022/03/19 04:01:08;;;;;;;103.00;65.50;;;;;;;-4.94;70.35;101328.85;105225;1270;76923;-77
2022/03/19 04:03:35;;;;;;;99.20;61.10;;;;;;;-4.95;70.76;101326.42;105311;1270;69117;-79
2022/03/19 04:06:03;;;;;;;107.80;60.20;;;;;;;-4.91;70.91;101326.70;105242;1269;74313;-78
2022/03/19 04:08:30;;;;;;;96.70;56.70;;;;;;;-4.88;70.89;101329.25;105519;1269;62088;-78
2022/03/19 04:10:56;;;;;;;94.60;57.50;;;;;;;-4.85;70.74;101329.52;105472;1270;62155;-78
2022/03/19 04:13:23;;;;;;;99.10;58.00;;;;;;;-4.82;70.88;101328.91;105080;1270;62199;-78
2022/03/19 04:15:50;;;;;;;98.10;59.20;;;;;;;-4.79;71.03;101328.50;105296;1270;63770;-79
2022/03/19 04:18:16;;;;;;;98.10;58.90;;;;;;;-4.80;71.15;101326.55;105262;1270;73285;-79
2022/03/19 04:20:43;;;;;;;90.80;56.70;;;;;;;-4.83;71.37;101329.59;105280;1270;62164;-79
2022/03/19 04:23:09;;;;;;;86.20;54.30;;;;;;;-4.83;71.05;101332.34;103852;1270;1015686;-78
2022/03/19 04:25:36;;;;;;;89.10;54.60;;;;;;;-4.83;71.25;101329.39;105301;1270;62107;-79
2022/03/19 04:28:02;;;;;;;87.40;54.20;;;;;;;-4.88;71.12;101325.08;105292;1270;62168;-78
2022/03/19 04:30:29;;;;;;;91.90;53.00;;;;;;;-4.94;70.96;101325.93;105229;1270;62308;-80
2022/03/19 04:32:58;;;;;;;92.10;55.00;;;;;;;-5.01;70.98;101326.90;105289;1270;62094;-79
2022/03/19 04:38:14;;;;;;;87.60;53.30;;;;;;;-5.12;71.00;101324.45;105301;1270;77353;-78
2022/03/19 04:40:42;;;;;;;88.30;54.70;;;;;;;-5.11;71.13;101325.70;105278;1271;69240;-79
2022/03/19 04:43:09;;;;;;;85.40;50.10;;;;;;;-5.11;71.27;101328.98;105333;1270;72749;-80
2022/03/19 04:45:37;;;;;;;95.30;58.40;;;;;;;-5.13;71.21;101328.60;105108;1270;62116;-79
2022/03/19 04:48:04;;;;;;;94.10;55.20;;;;;;;-5.14;71.16;101328.39;105326;1270;62060;-78
2022/03/19 04:50:31;;;;;;;87.10;52.80;;;;;;;-5.10;71.13;101330.06;105278;1269;76847;-79
2022/03/19 04:52:58;;;;;;;89.20;52.00;;;;;;;-5.06;71.11;101328.28;105286;1270;69728;-78
2022/03/19 04:55:26;;;;;;;73.70;46.70;;;;;;;-5.02;71.15;101329.30;105121;1270;73212;-79
2022/03/19 04:57:52;;;;;;;79.60;47.10;;;;;;;-4.94;71.01;101329.73;105306;1270;62107;-80
2022/03/19 05:00:20;;;;;;;69.90;44.30;;;;;;;-4.87;70.81;101327.02;104574;1270;1003491;-80
2022/03/19 05:02:47;;;;;;;75.20;44.30;;;;;;;-4.78;70.61;101322.13;105271;1270;77156;-79
2022/03/19 05:05:13;;;;;;;70.80;41.00;;;;;;;-4.67;70.55;101319.54;105271;1270;70584;-79
2022/03/19 05:07:40;;;;;;;70.60;39.00;;;;;;;-4.56;70.29;101319.88;105340;1270;73101;-81
2022/03/19 05:12:54;;;;;;;63.30;38.60;;;;;;;-3.95;69.45;101312.36;105320;1270;62092;-79
2022/03/19 05:15:21;;;;;;;67.90;40.30;;;;;;;-3.63;68.92;101310.33;105264;1270;76873;-79
2022/03/19 05:17:47;;;;;;;67.80;41.30;;;;;;;-3.27;68.40;101310.45;105309;1269;70237;-79
2022/03/19 05:20:14;;;;;;;70.80;43.30;;;;;;;-2.95;67.71;101319.59;105258;1270;62155;-81
2022/03/19 05:22:41;;;;;;;72.20;44.80;;;;;;;-2.66;67.16;101317.54;105299;1270;62064;-79
2022/03/19 05:25:08;;;;;;;67.10;44.20;;;;;;;-2.41;66.67;101315.86;105310;1270;62055;-79
2022/03/19 05:27:36;;;;;;;68.20;43.00;;;;;;;-2.15;66.07;101316.79;105263;1270;74263;-79
2022/03/19 05:30:04;;;;;;;63.80;42.00;;;;;;;-2.03;65.82;101315.14;104556;1270;1003090;-81
2022/03/19 05:32:30;;;;;;;64.90;42.30;;;;;;;-1.86;65.45;101315.67;105276;1270;74338;-81
2022/03/19 05:34:57;;;;;;;58.40;39.20;;;;;;;-1.59;64.73;101317.61;105305;1270;62077;-78
2022/03/19 05:37:23;;;;;;;62.50;39.70;;;;;;;-1.37;64.03;101318.21;105315;1270;62082;-80
2022/03/19 05:39:50;;;;;;;61.10;39.50;;;;;;;-1.17;63.39;101316.15;105276;1270;62075;-80
2022/03/19 05:42:16;;;;;;;60.30;38.80;;;;;;;-1.00;62.67;101320.80;105255;1269;62100;-79
2022/03/19 05:44:43;;;;;;;61.00;38.90;;;;;;;-0.83;62.39;101319.70;105304;1270;62102;-77
2022/03/19 05:47:10;;;;;;;61.40;41.10;;;;;;;-0.67;61.92;101323.98;105277;1270;62180;-77
2022/03/19 05:49:36;;;;;;;65.00;40.90;;;;;;;-0.58;61.26;101322.91;105265;1269;62087;-79
2022/03/19 05:52:03;;;;;;;64.50;39.50;;;;;;;-0.52;61.07;101323.88;105301;1270;75357;-78
2022/03/19 05:54:30;;;;;;;63.40;39.30;;;;;;;-0.41;60.57;101323.36;105327;1270;68517;-79
2022/03/19 05:56:56;;;;;;;65.30;41.50;;;;;;;-0.43;60.49;101324.18;105277;1270;62182;-78
2022/03/19 05:59:23;;;;;;;63.80;39.60;;;;;;;-0.45;60.65;101324.35;105285;1270;62148;-79
2022/03/19 06:01:50;;;;;;;59.80;39.20;;;;;;;-0.52;60.27;101327.19;105257;1268;61921;-81
2022/03/19 06:04:17;;;;;;;62.40;39.00;;;;;;;-0.71;60.19;101326.73;105270;1270;77354;-79
2022/03/19 06:06:43;;;;;;;59.70;37.40;;;;;;;-0.85;60.10;101332.75;105332;1270;68160;-78
2022/03/19 06:09:10;;;;;;;60.80;38.20;;;;;;;-0.98;59.65;101338.81;105001;1270;62088;-79
2022/03/19 06:11:38;;;;;;;59.70;36.70;;;;;;;-1.10;59.78;101336.17;105257;1270;62021;-80
2022/03/19 06:14:05;;;;;;;59.60;39.40;;;;;;;-1.17;59.59;101333.77;105336;1270;62019;-78
2022/03/19 06:16:31;;;;;;;61.80;39.00;;;;;;;-1.22;59.33;101332.10;105294;1270;76950;-79
2022/03/19 06:18:58;;;;;;;57.20;37.20;;;;;;;-1.25;59.60;101333.09;105311;1270;62066;-79
2022/03/19 06:21:25;;;;;;;59.10;36.60;;;;;;;-1.26;59.31;101337.42;105056;1271;71641;-78
2022/03/19 06:23:53;;;;;;;60.40;36.90;;;;;;;-1.26;59.52;101336.20;105244;1270;62201;-79
2022/03/19 06:26:20;;;;;;;65.10;39.80;;;;;;;-1.23;59.32;101333.48;105057;1270;62149;-79
2022/03/19 06:28:47;;;;;;;60.10;39.00;;;;;;;-1.19;59.30;101337.57;105328;1270;76366;-80
2022/03/19 06:31:13;;;;;;;66.60;39.60;;;;;;;-1.16;59.12;101336.91;105321;1268;70668;-79
2022/03/19 06:33:41;;;;;;;68.70;41.20;;;;;;;-1.12;59.16;101340.13;105279;1270;62239;-80
2022/03/19 06:38:54;;;;;;;61.70;39.80;;;;;;;-1.00;58.87;101352.20;105050;1271;61954;-81
2022/03/19 06:41:23;;;;;;;62.50;41.10;;;;;;;-0.95;58.75;101353.36;105296;1270;62099;-79
2022/03/19 06:43:51;;;;;;;64.80;41.00;;;;;;;-0.89;58.80;101354.52;105287;1269;69228;-78
2022/03/19 06:46:17;;;;;;;60.40;40.00;;;;;;;-0.82;58.68;101356.53;105295;1270;71625;-78
2022/03/19 06:48:46;;;;;;;64.40;39.50;;;;;;;-0.75;58.48;101352.84;105277;1270;61984;-82
2022/03/19 06:51:13;;;;;;;62.50;39.40;;;;;;;-0.70;58.19;101353.79;105304;1270;61934;-77
2022/03/19 06:53:39;;;;;;;61.00;39.40;;;;;;;-0.69;57.95;101352.59;105237;1270;76509;-79
2022/03/19 06:56:06;;;;;;;63.30;40.40;;;;;;;-0.64;58.07;101355.80;105263;1270;62247;-79
2022/03/19 06:58:33;;;;;;;68.50;42.90;;;;;;;-0.55;58.53;101354.21;105290;1270;74374;-80
2022/03/19 07:01:01;;;;;;;59.10;39.80;;;;;;;-0.43;58.47;101354.23;105292;1270;61975;-78
2022/03/19 07:03:28;;;;;;;62.20;41.10;;;;;;;-0.34;57.64;101350.17;105280;1270;62046;-80
2022/03/19 07:05:55;;;;;;;68.00;42.90;;;;;;;-0.29;57.73;101349.55;105298;1270;75008;-78
2022/03/19 07:08:22;;;;;;;67.80;43.70;;;;;;;-0.23;57.92;101348.42;105297;1270;70576;-80
2022/03/19 07:10:49;;;;;;;63.90;42.90;;;;;;;-0.13;57.80;101348.22;105368;1270;74124;-83
2022/03/19 07:13:15;;;;;;;65.60;43.80;;;;;;;-0.06;57.96;101345.18;105350;1270;62165;-80
2022/03/19 07:15:42;;;;;;;64.50;41.60;;;;;;;0.02;57.34;101339.17;105328;1270;62045;-81
2022/03/19 07:18:08;;;;;;;62.40;40.00;;;;;;;0.04;56.43;101344.44;105333;1270;62101;-78
2022/03/19 07:20:35;;;;;;;58.10;40.70;;;;;;;0.04;56.69;101340.06;105299;1270;62160;-81
2022/03/19 07:23:06;;;;;;;59.10;38.40;;;;;;;0.11;56.93;101341.05;105328;1270;74375;-79
2022/03/19 07:25:33;;;;;;;;;;;;;;;0.19;56.46;101344.46;105328;1270;62085;-79
2022/03/19 07:28:20;;;;;;;56.30;38.30;;;;;;;0.25;56.43;101343.50;105266;1270;62075;-79
2022/03/19 07:30:47;;;;;;;58.50;38.30;;;;;;;0.32;55.88;101346.05;105298;1270;75431;-81
2022/03/19 07:33:14;;;;;;;59.70;40.60;;;;;;;0.37;55.99;101343.84;105148;1271;69387;-79
2022/03/19 07:35:42;;;;;;;62.40;39.20;;;;;;;0.46;55.84;101343.41;105311;1270;73177;-80
2022/03/19 07:38:11;;;;;;;62.60;38.90;;;;;;;0.56;55.38;101344.40;105321;1270;62376;-80
2022/03/19 07:43:25;;;;;;;58.10;38.20;;;;;;;0.79;55.34;101341.85;105290;1270;76145;-80
2022/03/19 07:45:52;;;;;;;57.60;38.10;;;;;;;0.92;55.39;101346.20;105342;1270;69972;-80
2022/03/19 07:48:19;;;;;;;56.20;37.60;;;;;;;1.06;55.29;101342.14;105401;1270;73298;-83
2022/03/19 07:50:46;;;;;;;53.00;37.30;;;;;;;1.20;55.26;101343.66;105449;1270;62196;-81
2022/03/19 07:53:13;;;;;;;55.70;37.40;;;;;;;1.35;54.82;101346.42;105442;1271;62056;-82
2022/03/19 07:55:40;;;;;;;51.50;36.80;;;;;;;1.46;54.96;101343.00;105517;1270;76508;-82
2022/03/19 07:58:06;;;;;;;54.50;35.50;;;;;;;1.58;54.56;101345.39;105632;1270;62222;-80
2022/03/19 08:00:33;;;;;;;54.80;35.80;;;;;;;1.69;53.63;101347.74;105599;1270;62099;-79
2022/03/19 08:03:00;;;;;;;48.50;35.30;;;;;;;1.73;53.41;101351.10;105306;1273;62088;-80
2022/03/19 08:05:26;;;;;;;49.00;33.90;;;;;;;1.83;53.87;101349.59;105298;1270;62026;-80
2022/03/19 08:07:53;;;;;;;47.90;31.70;;;;;;;1.96;53.32;101352.48;105325;1270;62051;-80
2022/03/19 08:10:19;;;;;;;49.80;34.40;;;;;;;2.03;51.94;101352.53;105338;1270;69806;-80
2022/03/19 08:12:47;;;;;;;48.80;33.30;;;;;;;2.11;52.59;101351.52;105297;1270;74471;-80
2022/03/19 08:15:14;;;;;;;40.50;28.50;;;;;;;2.25;52.31;101351.59;105160;1273;62201;-81
2022/03/19 08:17:42;;;;;;;43.70;31.50;;;;;;;2.38;51.12;101342.19;105223;1270;62182;-81
2022/03/19 08:20:09;;;;;;;39.50;28.90;;;;;;;2.49;51.16;101343.27;105512;1270;77271;-79
2022/03/19 08:22:35;;;;;;;41.80;29.00;;;;;;;2.62;50.43;101347.01;105372;1270;69485;-79
2022/03/19 08:25:03;;;;;;;39.20;26.30;;;;;;;2.72;49.57;101339.50;105366;1270;73390;-83
2022/03/19 08:27:29;;;;;;;34.30;23.40;;;;;;;2.82;48.90;101339.00;105511;1270;62080;-80
2022/03/19 08:29:56;;;;;;;34.00;24.20;;;;;;;2.97;48.78;101331.48;105481;1270;61997;-81
2022/03/19 08:32:23;;;;;;;28.50;22.30;;;;;;;3.08;47.11;101337.82;105176;1271;74423;-82
2022/03/19 08:34:50;;;;;;;31.20;22.00;;;;;;;3.13;46.86;101334.31;105333;1270;62545;-80
2022/03/19 08:37:17;;;;;;;29.40;20.50;;;;;;;3.23;47.52;101336.61;105297;1270;74386;-80
2022/03/19 08:42:29;;;;;;;28.60;19.80;;;;;;;3.42;44.58;101339.60;105308;1269;62000;-80
2022/03/19 08:44:57;;;;;;;32.30;20.20;;;;;;;3.43;43.68;101330.11;105322;1271;62072;-81
2022/03/19 08:47:23;;;;;;;28.30;19.60;;;;;;;3.50;44.29;101330.46;105501;1270;69525;-80
2022/03/19 08:49:49;;;;;;;26.20;20.70;;;;;;;3.62;44.63;101333.26;105310;1270;61963;-81
2022/03/19 08:52:16;;;;;;;26.60;20.00;;;;;;;3.71;43.60;101336.60;105306;1271;62094;-81
2022/03/19 08:54:43;;;;;;;24.70;19.20;;;;;;;3.75;43.03;101332.19;105367;1270;61986;-81
2022/03/19 08:57:10;;;;;;;27.40;19.40;;;;;;;3.81;42.52;101336.76;105347;1271;62156;-80
2022/03/19 08:59:37;;;;;;;24.80;19.10;;;;;;;3.85;41.37;101332.35;105342;1270;69621;-81
2022/03/19 09:02:04;;;;;;;26.60;19.60;;;;;;;3.90;41.35;101330.77;105119;1273;73774;-79
2022/03/19 09:04:32;;;;;;;24.00;17.90;;;;;;;3.95;41.24;101331.98;105387;1270;62199;-80
2022/03/19 09:06:59;;;;;;;26.30;19.90;;;;;;;4.01;41.26;101329.67;105339;1269;62081;-79
2022/03/19 09:09:25;;;;;;;30.70;19.60;;;;;;;4.15;42.04;101322.61;105329;1271;76196;-80
2022/03/19 09:11:52;;;;;;;27.70;19.70;;;;;;;4.31;41.40;101326.06;105393;1270;69397;-78
2022/03/19 09:14:19;;;;;;;27.60;17.90;;;;;;;4.40;41.12;101323.73;105240;1271;72830;-79
2022/03/19 09:16:46;;;;;;;23.00;18.00;;;;;;;4.51;40.70;101317.00;105257;1272;62162;-81
2022/03/19 09:19:13;;;;;;;25.30;18.10;;;;;;;4.61;39.92;101316.60;105359;1270;61952;-80
2022/03/19 09:21:40;;;;;;;25.80;17.40;;;;;;;4.71;39.58;101318.48;105338;1271;75576;-81
2022/03/19 09:24:07;;;;;;;27.90;18.90;;;;;;;4.80;39.66;101322.31;105346;1271;70410;-78
2022/03/19 09:26:33;;;;;;;22.60;17.60;;;;;;;4.86;38.84;101317.34;105341;1270;62072;-79
2022/03/19 09:29:00;;;;;;;26.50;18.60;;;;;;;4.91;38.53;101318.73;105111;1271;62213;-72
2022/03/19 09:31:27;;;;;;;29.80;19.20;;;;;;;4.97;38.22;101322.73;105317;1271;61973;-75
2022/03/19 09:33:54;;;;;;;23.40;18.20;;;;;;;5.00;38.15;101318.14;105290;1271;76900;-76
2022/03/19 09:36:20;;;;;;;23.10;15.70;;;;;;;5.10;37.79;101319.13;105380;1271;69367;-77
2022/03/19 09:38:47;;;;;;;19.70;15.00;;;;;;;5.18;35.76;101312.55;105087;1270;62330;-75
2022/03/19 09:41:14;;;;;;;23.30;16.00;;;;;;;5.18;35.04;101315.18;105329;1271;61987;-76
2022/03/19 09:43:42;;;;;;;21.30;15.60;;;;;;;5.23;36.10;101308.80;105374;1270;62499;-75
2022/03/19 09:46:09;;;;;;;20.30;16.20;;;;;;;5.34;35.93;101308.89;105505;1271;74403;-76
2022/03/19 09:48:35;;;;;;;22.10;15.20;;;;;;;5.48;36.91;101307.37;104393;1273;1003115;-75
2022/03/19 09:51:06;;;;;;;20.00;14.80;;;;;;;5.60;34.30;101315.02;105368;1270;73466;-74
2022/03/19 09:53:33;;;;;;;22.70;15.20;;;;;;;5.64;35.20;101306.86;105411;1271;62132;-75
2022/03/19 09:56:02;;;;;;;21.60;15.90;;;;;;;5.74;35.64;101304.65;105212;1271;62093;-76
2022/03/19 09:58:29;;;;;;;19.10;14.90;;;;;;;5.90;35.42;101303.61;105428;1271;75250;-76
2022/03/19 10:01:03;;;;;;;18.10;14.30;;;;;;;5.99;33.72;101305.48;105610;1270;69327;-75
2022/03/19 10:03:32;;;;;;;16.20;13.00;;;;;;;6.01;33.51;101304.23;105375;1273;74272;-77
2022/03/19 10:08:58;;;;;;;16.90;13.40;;;;;;;6.04;32.40;101304.89;105792;1271;62081;-76
2022/03/19 10:11:30;;;;;;;19.20;13.10;;;;;;;6.08;32.01;101299.73;106246;1271;76020;-75
2022/03/19 10:14:03;;;;;;;15.00;11.70;;;;;;;6.15;31.44;101298.95;107269;1272;69257;-76
2022/03/19 10:16:30;;;;;;;16.80;13.20;;;;;;;6.24;31.94;101298.48;107612;1271;74406;-76
2022/03/19 10:19:06;;;;;;;19.40;12.00;;;;;;;6.34;32.34;101300.30;107758;1270;61203;-76
2022/03/19 10:21:38;;;;;;;16.20;11.70;;;;;;;6.48;32.02;101300.30;107282;1271;62102;-77
2022/03/19 10:24:07;;;;;;;14.90;10.70;;;;;;;6.56;30.71;101301.98;105425;1271;76215;-76
2022/03/19 10:26:37;;;;;;;16.90;11.80;;;;;;;6.58;30.15;101296.29;105409;1271;69279;-76
2022/03/19 10:29:12;;;;;;;20.50;12.90;;;;;;;6.67;31.17;101294.39;105433;1271;73133;-76
2022/03/19 10:31:47;;;;;;;17.70;13.90;;;;;;;6.81;31.31;101288.37;105391;1271;62076;-76
2022/03/19 10:34:14;;;;;;;12.80;10.80;;;;;;;6.96;30.53;101290.98;105383;1271;62178;-76
2022/03/19 10:36:42;;;;;;;13.40;11.00;;;;;;;6.99;30.17;101282.98;105328;1271;76959;-77
2022/03/19 10:39:13;;;;;;;37.20;27.30;;;;;;;7.08;30.08;101278.05;105338;1271;69182;-76
2022/03/19 10:41:40;;;;;;;17.50;12.70;;;;;;;7.15;30.42;101279.71;105335;1271;73145;-76
2022/03/19 10:44:12;;;;;;;12.20;10.20;;;;;;;7.22;29.54;101272.01;105286;1271;62171;-76
2022/03/19 10:46:42;;;;;;;14.50;11.30;;;;;;;7.32;29.28;101279.27;105362;1271;62413;-75
2022/03/19 10:49:13;;;;;;;17.40;12.10;;;;;;;7.35;28.98;101273.38;105486;1271;76785;-75
2022/03/19 10:51:48;;;;;;;17.00;13.90;;;;;;;7.36;27.91;101279.89;105275;1271;67569;-75
2022/03/19 10:54:34;;;;;;;12.60;10.50;;;;;;;7.37;28.62;101280.41;104994;1274;72823;-76
2022/03/19 10:57:03;;;;;;;13.70;10.30;;;;;;;7.41;27.85;101276.26;104945;1271;62175;-75
2022/03/19 10:59:31;;;;;;;14.60;11.40;;;;;;;7.46;27.85;101277.42;105109;1272;61954;-75
2022/03/19 11:02:20;;;;;;;20.40;18.50;;;;;;;7.56;28.03;101267.86;105095;1271;76379;-76
2022/03/19 11:04:49;;;;;;;12.70;11.20;;;;;;;7.70;28.57;101268.86;104705;1278;69029;-77
2022/03/19 11:07:20;;;;;;;12.40;9.60;;;;;;;7.76;26.98;101270.33;104875;1277;73176;-77
2022/03/19 11:09:53;;;;;;;12.50;9.50;;;;;;;7.72;26.86;101268.84;104912;1278;62183;-76
2022/03/19 11:12:25;;;;;;;13.90;9.90;;;;;;;7.74;26.22;101264.02;104929;1277;61921;-75
2022/03/19 11:14:53;;;;;;;13.80;10.60;;;;;;;7.71;26.33;101259.10;104880;1277;75963;-75
2022/03/19 11:17:28;;;;;;;12.30;9.90;;;;;;;7.70;26.02;101254.17;105120;1277;69303;-77
2022/03/19 11:19:59;;;;;;;13.30;9.20;;;;;;;7.75;26.50;101257.77;105079;1277;72934;-77
2022/03/19 11:22:27;;;;;;;;;;;;;;;7.81;24.84;101251.85;104939;1275;62517;-75
2022/03/19 11:25:13;;;;;;;11.70;9.10;;;;;;;7.79;25.37;101244.42;104889;1277;61961;-76